Time;durP1;ratioP1;P1;durP2;ratioP2;P2;SDS_P1;SDS_P2;PMS_P1;PMS_P2;Temp;Humidity;BMP_temperature;BMP_pressure;BME280_temperature;BME280_humidity;BME280_pressure;Samples;Min_cycle;Max_cycle;Signal;HPM_P1;HPM_P2
2022/07/17 00:00:18;;;;;;;4.15;2.85;;;23.60;69.90;;;;;;4938155;28;20503;-82
2022/07/17 00:02:44;;;;;;;4.35;3.05;;;23.60;69.30;;;;;;4966911;28;20122;-82
2022/07/17 00:05:10;;;;;;;4.93;2.95;;;23.60;69.30;;;;;;4971690;28;20113;-82
2022/07/17 00:07:36;;;;;;;4.60;3.08;;;23.50;69.20;;;;;;4965724;28;20039;-82
2022/07/17 00:10:02;;;;;;;3.92;3.22;;;23.50;69.30;;;;;;4971777;28;20094;-82
2022/07/17 00:12:28;;;;;;;3.78;3.38;;;23.50;69.20;;;;;;4985354;28;20449;-82
2022/07/17 00:14:54;;;;;;;3.88;2.95;;;23.50;69.30;;;;;;4964762;28;20035;-82
2022/07/17 00:17:21;;;;;;;6.25;3.22;;;23.50;69.30;;;;;;4964768;28;20034;-82
2022/07/17 00:19:47;;;;;;;3.47;2.85;;;23.50;69.20;;;;;;4982749;28;20488;-82
2022/07/17 00:22:13;;;;;;;3.10;2.80;;;23.50;69.20;;;;;;4965331;28;20059;-82
2022/07/17 00:24:39;;;;;;;4.28;3.00;;;23.50;69.40;;;;;;4951319;28;20110;-83
2022/07/17 00:27:05;;;;;;;3.13;2.83;;;23.40;69.30;;;;;;4969750;28;20082;-82
2022/07/17 00:29:31;;;;;;;4.20;3.13;;;23.50;69.40;;;;;;4969372;28;20038;-84
2022/07/17 00:31:57;;;;;;;4.57;2.83;;;23.40;69.40;;;;;;4966334;28;20078;-84
2022/07/17 00:34:23;;;;;;;3.70;3.00;;;23.50;69.40;;;;;;4969253;28;20434;-84
2022/07/17 00:36:49;;;;;;;3.55;2.95;;;23.50;69.40;;;;;;4965612;28;20043;-84
2022/07/17 00:39:15;;;;;;;4.72;3.10;;;23.40;69.30;;;;;;4968346;28;20120;-82
2022/07/17 00:41:44;;;;;;;5.78;3.75;;;23.50;69.20;;;;;;4952363;28;20041;-84
2022/07/17 00:44:13;;;;;;;4.53;3.20;;;23.40;69.10;;;;;;4968131;28;20116;-84
2022/07/17 00:46:40;;;;;;;4.85;3.72;;;23.40;68.90;;;;;;4968286;28;20511;-84
2022/07/17 00:49:07;;;;;;;4.10;3.22;;;23.40;68.90;;;;;;4966329;28;20502;-84
2022/07/17 00:51:33;;;;;;;5.35;3.67;;;23.40;69.00;;;;;;4967681;28;20038;-83
2022/07/17 00:54:00;;;;;;;5.82;3.53;;;23.40;69.00;;;;;;4967316;28;20037;-84
2022/07/17 00:56:28;;;;;;;4.45;2.92;;;23.40;69.10;;;;;;4966883;28;20051;-84
2022/07/17 00:58:54;;;;;;;5.38;3.28;;;23.40;69.30;;;;;;4969034;28;20663;-84
2022/07/17 01:01:20;;;;;;;3.72;3.20;;;23.40;69.40;;;;;;4968749;28;20129;-84
2022/07/17 01:03:46;;;;;;;5.13;3.40;;;23.40;69.50;;;;;;4968502;28;20091;-84
2022/07/17 01:06:13;;;;;;;4.65;3.55;;;23.30;69.50;;;;;;4966513;28;20105;-83
2022/07/17 01:08:39;;;;;;;5.50;3.47;;;23.30;69.30;;;;;;4965610;28;20044;-84
2022/07/17 01:11:07;;;;;;;3.45;3.05;;;23.40;69.40;;;;;;4963834;28;20063;-84
2022/07/17 01:13:34;;;;;;;5.00;3.30;;;23.30;69.50;;;;;;4967967;28;20928;-83
2022/07/17 01:15:59;;;;;;;4.00;2.75;;;23.30;69.40;;;;;;4969196;28;20548;-84
2022/07/17 01:18:25;;;;;;;5.68;3.42;;;23.40;69.50;;;;;;4970343;28;20034;-84
2022/07/17 01:20:51;;;;;;;4.65;3.35;;;23.40;69.50;;;;;;4982555;28;20050;-84
2022/07/17 01:23:19;;;;;;;5.43;3.40;;;23.40;69.30;;;;;;4965940;28;21357;-84
2022/07/17 01:25:46;;;;;;;5.57;3.50;;;23.40;69.30;;;;;;4980339;28;20039;-83
2022/07/17 01:28:12;;;;;;;3.72;3.30;;;23.50;69.40;;;;;;4969439;28;20043;-82
2022/07/17 01:30:48;;;;;;;5.28;3.47;;;23.50;69.30;;;;;;4965616;28;20061;-82
2022/07/17 01:33:15;;;;;;;4.22;3.38;;;23.40;69.30;;;;;;4966196;28;20042;-82
2022/07/17 01:35:42;;;;;;;5.47;3.97;;;23.40;69.30;;;;;;4968823;28;20046;-83
2022/07/17 01:38:08;;;;;;;4.18;3.78;;;23.40;69.10;;;;;;4969585;28;20038;-82
2022/07/17 01:40:34;;;;;;;6.05;3.70;;;23.40;69.20;;;;;;4953819;28;20518;-82
2022/07/17 01:43:00;;;;;;;6.57;4.25;;;23.40;69.30;;;;;;4969907;28;20042;-82
2022/07/17 01:45:26;;;;;;;6.45;4.25;;;23.40;69.30;;;;;;4964562;28;20059;-82
2022/07/17 01:47:52;;;;;;;5.45;3.90;;;23.40;69.20;;;;;;4965988;28;20576;-83
2022/07/17 01:50:18;;;;;;;5.13;3.85;;;23.40;69.10;;;;;;4969013;28;20070;-83
2022/07/17 01:52:45;;;;;;;8.27;4.00;;;23.40;69.20;;;;;;4970312;28;20470;-82
2022/07/17 01:55:13;;;;;;;7.43;3.88;;;23.40;69.30;;;;;;4949457;28;20039;-82
2022/07/17 01:57:40;;;;;;;6.20;4.20;;;23.40;69.30;;;;;;4946297;28;20042;-83
2022/07/17 02:00:10;;;;;;;8.32;4.40;;;23.30;69.30;;;;;;4966029;28;20078;-82
2022/07/17 02:02:36;;;;;;;6.47;4.15;;;23.40;69.50;;;;;;4966817;28;20047;-82
2022/07/17 02:05:02;;;;;;;6.43;4.40;;;23.40;69.50;;;;;;4966193;28;20057;-82
2022/07/17 02:07:28;;;;;;;6.72;4.20;;;23.40;69.50;;;;;;4932073;28;20035;-82
2022/07/17 02:09:54;;;;;;;5.53;3.95;;;23.40;69.50;;;;;;4946353;28;20178;-82
2022/07/17 02:12:20;;;;;;;7.30;4.45;;;23.40;69.60;;;;;;4921955;28;20118;-82
2022/07/17 02:14:46;;;;;;;6.05;4.28;;;23.40;69.50;;;;;;4952913;28;20043;-83
2022/07/17 02:17:11;;;;;;;7.90;4.50;;;23.40;69.50;;;;;;4949787;28;20043;-82
2022/07/17 02:19:37;;;;;;;6.43;4.30;;;23.30;69.20;;;;;;4948551;28;20491;-82
2022/07/17 02:22:03;;;;;;;6.13;4.25;;;23.40;69.40;;;;;;4950742;28;20074;-83
2022/07/17 02:24:29;;;;;;;6.07;4.28;;;23.40;69.40;;;;;;4951687;28;20631;-82
2022/07/17 02:26:55;;;;;;;6.93;4.30;;;23.30;69.20;;;;;;4950429;28;20039;-82
2022/07/17 02:29:21;;;;;;;6.53;4.30;;;23.40;69.40;;;;;;4917366;28;20102;-83
2022/07/17 02:31:47;;;;;;;8.52;4.55;;;23.40;69.60;;;;;;4952056;28;20381;-83
2022/07/17 02:34:13;;;;;;;6.95;4.40;;;23.30;69.50;;;;;;4966862;28;20098;-83
2022/07/17 02:36:39;;;;;;;12.82;5.15;;;23.40;69.50;;;;;;4963516;28;20039;-83
2022/07/17 02:39:05;;;;;;;8.38;4.50;;;23.30;69.50;;;;;;4949770;28;20077;-83
2022/07/17 02:41:31;;;;;;;6.40;4.88;;;23.40;69.50;;;;;;4944388;28;20382;-83
2022/07/17 02:43:57;;;;;;;7.43;4.90;;;23.30;69.50;;;;;;4949122;28;20045;-82
2022/07/17 02:46:23;;;;;;;6.60;4.85;;;23.30;69.40;;;;;;4933115;28;20040;-83
2022/07/17 02:48:49;;;;;;;7.95;4.93;;;23.30;69.50;;;;;;4964304;28;20043;-83
2022/07/17 02:51:15;;;;;;;8.13;4.78;;;23.40;69.40;;;;;;4932495;28;20058;-82
2022/07/17 02:53:41;;;;;;;8.40;4.95;;;23.40;69.60;;;;;;4948603;28;20066;-83
2022/07/17 02:56:07;;;;;;;6.63;4.68;;;23.40;69.70;;;;;;4933082;28;20494;-83
2022/07/17 02:58:33;;;;;;;6.03;4.43;;;23.40;69.90;;;;;;4949650;28;20050;-83
2022/07/17 03:00:59;;;;;;;8.98;4.75;;;23.40;70.00;;;;;;4948499;28;20031;-83
2022/07/17 03:03:25;;;;;;;9.60;5.05;;;23.40;70.00;;;;;;4967186;28;20491;-83
2022/07/17 03:05:51;;;;;;;9.30;4.65;;;23.40;70.10;;;;;;4949273;28;20039;-82
2022/07/17 03:08:17;;;;;;;7.78;5.13;;;23.40;70.20;;;;;;4947079;28;20070;-82
2022/07/17 03:10:43;;;;;;;8.82;5.03;;;23.40;70.30;;;;;;4950705;28;20466;-82
2022/07/17 03:13:09;;;;;;;7.60;4.60;;;23.40;70.20;;;;;;4947908;28;20034;-82
2022/07/17 03:15:35;;;;;;;8.57;5.20;;;23.40;70.30;;;;;;4948410;28;20129;-82
2022/07/17 03:18:01;;;;;;;5.75;4.90;;;23.40;70.30;;;;;;4950804;28;20415;-82
2022/07/17 03:20:27;;;;;;;9.95;4.93;;;23.40;70.30;;;;;;4949507;28;20027;-83
2022/07/17 03:22:52;;;;;;;6.10;4.22;;;23.40;70.00;;;;;;4952781;28;20027;-83
2022/07/17 03:25:18;;;;;;;6.43;4.45;;;23.40;69.90;;;;;;4951557;28;20181;-82
2022/07/17 03:27:44;;;;;;;9.18;4.95;;;23.40;70.10;;;;;;4948014;28;20071;-83
2022/07/17 03:30:10;;;;;;;7.90;4.85;;;23.50;70.40;;;;;;4935244;28;20483;-82
2022/07/17 03:32:36;;;;;;;9.63;4.80;;;23.50;70.20;;;;;;4935758;28;20087;-81
2022/07/17 03:35:02;;;;;;;7.57;5.10;;;23.50;70.20;;;;;;4945105;28;20560;-82
2022/07/17 03:37:29;;;;;;;7.65;4.80;;;23.50;70.20;;;;;;4950291;28;20449;-82
2022/07/17 03:39:55;;;;;;;7.32;4.80;;;23.50;70.10;;;;;;4936104;28;20055;-82
2022/07/17 03:42:21;;;;;;;10.75;4.93;;;23.50;70.00;;;;;;4930769;28;20122;-82
2022/07/17 03:44:47;;;;;;;6.28;4.80;;;23.50;70.10;;;;;;4964828;28;20130;-82
2022/07/17 03:47:13;;;;;;;7.40;4.70;;;23.50;70.30;;;;;;4964781;28;20503;-82
2022/07/17 03:49:39;;;;;;;7.95;4.40;;;23.50;70.00;;;;;;4949637;28;20035;-82
2022/07/17 03:52:05;;;;;;;9.27;4.60;;;23.60;70.10;;;;;;4946991;28;20035;-83
2022/07/17 03:54:31;;;;;;;9.25;4.80;;;23.60;70.10;;;;;;4933462;28;20360;-83
2022/07/17 03:56:57;;;;;;;7.28;4.75;;;23.60;70.10;;;;;;4935727;28;20036;-82
2022/07/17 03:59:24;;;;;;;6.45;4.22;;;23.70;69.80;;;;;;4950296;28;20390;-82
2022/07/17 04:01:50;;;;;;;8.05;4.72;;;23.70;70.00;;;;;;4965625;28;20031;-83
2022/07/17 04:04:16;;;;;;;7.43;4.55;;;23.70;70.00;;;;;;4945779;28;20509;-82
2022/07/17 04:06:42;;;;;;;9.10;4.90;;;23.70;69.80;;;;;;4963613;28;20047;-83
2022/07/17 04:09:07;;;;;;;7.97;4.70;;;23.80;70.00;;;;;;4963052;28;20049;-83
2022/07/17 04:11:33;;;;;;;8.45;4.70;;;23.90;69.90;;;;;;4964772;28;20031;-83
2022/07/17 04:13:59;;;;;;;9.27;4.82;;;23.90;69.70;;;;;;4951259;28;20410;-82
2022/07/17 04:16:25;;;;;;;9.75;4.50;;;23.90;69.50;;;;;;4978860;28;20032;-82
2022/07/17 04:18:51;;;;;;;6.65;4.10;;;24.00;69.70;;;;;;4979605;28;20165;-83
2022/07/17 04:21:17;;;;;;;8.00;4.60;;;24.10;70.30;;;;;;4945516;28;20405;-83
2022/07/17 04:23:43;;;;;;;6.32;3.72;;;24.10;69.70;;;;;;4951957;28;20122;-82
2022/07/17 04:26:09;;;;;;;7.45;4.30;;;24.10;69.80;;;;;;4969006;28;20114;-83
2022/07/17 04:28:35;;;;;;;7.47;3.88;;;24.20;69.80;;;;;;4964096;28;20540;-83
2022/07/17 04:31:01;;;;;;;6.47;4.30;;;24.20;69.60;;;;;;4944571;28;20043;-82
2022/07/17 04:33:27;;;;;;;7.13;4.13;;;24.20;69.70;;;;;;4960535;28;20051;-83
2022/07/17 04:35:53;;;;;;;5.40;3.92;;;24.20;69.70;;;;;;4943292;28;20039;-83
2022/07/17 04:38:19;;;;;;;7.70;4.15;;;24.20;69.50;;;;;;4958443;28;20045;-82
2022/07/17 04:40:48;;;;;;;8.90;4.13;;;24.20;69.60;;;;;;4932823;29;20027;-83
2022/07/17 04:43:14;;;;;;;5.38;3.67;;;24.20;69.70;;;;;;4944505;28;20400;-81
2022/07/17 04:45:40;;;;;;;8.35;4.28;;;24.40;69.80;;;;;;4944332;28;20086;-83
2022/07/17 04:48:06;;;;;;;8.13;3.85;;;24.50;69.50;;;;;;4945010;28;20036;-83
2022/07/17 04:50:33;;;;;;;5.63;3.88;;;24.60;69.20;;;;;;4945518;28;20059;-83
2022/07/17 04:53:00;;;;;;;7.95;3.78;;;24.80;68.70;;;;;;4927196;29;20036;-82
2022/07/17 04:55:26;;;;;;;7.25;3.92;;;25.00;67.40;;;;;;4913123;29;20059;-83
2022/07/17 04:57:53;;;;;;;6.93;3.85;;;25.10;66.50;;;;;;4957368;28;20042;-83
2022/07/17 05:00:20;;;;;;;5.28;3.58;;;25.30;65.90;;;;;;4941853;29;20050;-82
2022/07/17 05:02:46;;;;;;;5.90;3.95;;;25.40;65.50;;;;;;4913758;29;20382;-82
2022/07/17 05:05:12;;;;;;;5.35;3.78;;;25.40;65.20;;;;;;4946492;29;20572;-81
2022/07/17 05:07:38;;;;;;;6.18;3.47;;;25.40;65.00;;;;;;4981021;28;20081;-84
2022/07/17 05:10:05;;;;;;;6.43;3.40;;;25.40;64.70;;;;;;4954092;28;20042;-81
2022/07/17 05:12:31;;;;;;;6.90;3.42;;;25.50;64.30;;;;;;4947590;28;20498;-81
2022/07/17 05:14:58;;;;;;;4.72;2.90;;;25.50;64.00;;;;;;4953689;28;20101;-81
2022/07/17 05:17:24;;;;;;;6.13;3.50;;;25.50;64.00;;;;;;4961239;28;20406;-81
2022/07/17 05:19:50;;;;;;;4.57;3.20;;;25.50;64.10;;;;;;4961457;28;20035;-81
2022/07/17 05:22:16;;;;;;;3.70;2.88;;;25.50;64.10;;;;;;4961498;28;20030;-82
2022/07/17 05:24:42;;;;;;;6.47;3.22;;;25.50;64.00;;;;;;4976234;28;20074;-82
2022/07/17 05:27:08;;;;;;;6.28;3.38;;;25.50;63.90;;;;;;4961962;28;20390;-83
2022/07/17 05:29:34;;;;;;;5.57;3.50;;;25.50;64.60;;;;;;4944342;28;20462;-81
2022/07/17 05:32:00;;;;;;;3.85;2.50;;;25.50;65.00;;;;;;4943110;28;20040;-81
2022/07/17 05:34:26;;;;;;;5.10;3.40;;;25.50;65.40;;;;;;4942940;28;20698;-81
2022/07/17 05:36:52;;;;;;;6.20;3.03;;;25.40;64.50;;;;;;4957503;28;20589;-82
2022/07/17 05:39:18;;;;;;;8.00;3.10;;;25.50;65.00;;;;;;4950320;28;20507;-82
2022/07/17 05:41:44;;;;;;;5.35;2.85;;;25.40;65.30;;;;;;4948759;28;20042;-83
2022/07/17 05:44:10;;;;;;;4.05;2.83;;;25.50;65.60;;;;;;4955530;28;20130;-83
2022/07/17 05:46:36;;;;;;;5.55;3.22;;;25.40;65.90;;;;;;4952955;28;20446;-84
2022/07/17 05:49:02;;;;;;;4.55;3.30;;;25.40;66.50;;;;;;4963962;28;20067;-83
2022/07/17 05:51:28;;;;;;;3.97;2.90;;;25.40;66.40;;;;;;4982569;28;20074;-83
2022/07/17 05:53:54;;;;;;;5.68;3.05;;;25.40;67.10;;;;;;4963649;28;20070;-83
2022/07/17 05:56:20;;;;;;;5.53;2.65;;;25.40;65.70;;;;;;4963600;28;20137;-81
2022/07/17 05:58:45;;;;;;;5.93;2.90;;;25.50;64.60;;;;;;4970257;28;20042;-83
2022/07/17 06:01:12;;;;;;;3.55;2.67;;;25.60;64.20;;;;;;4962231;28;20094;-82
2022/07/17 06:03:37;;;;;;;3.75;2.55;;;25.70;63.20;;;;;;4964047;28;20040;-83
2022/07/17 06:06:04;;;;;;;5.93;2.35;;;25.70;62.50;;;;;;4966645;28;20053;-83
2022/07/17 06:08:29;;;;;;;5.35;2.45;;;25.70;62.00;;;;;;4967619;28;20499;-83
2022/07/17 06:10:56;;;;;;;6.80;2.50;;;25.70;62.80;;;;;;4982169;28;20035;-83
2022/07/17 06:13:22;;;;;;;5.07;2.42;;;25.90;61.70;;;;;;4965865;28;20469;-84
2022/07/17 06:15:48;;;;;;;3.70;2.50;;;26.10;61.40;;;;;;4983910;28;20042;-83
2022/07/17 06:18:14;;;;;;;5.55;2.78;;;26.30;60.90;;;;;;4964407;28;20037;-83
2022/07/17 06:20:39;;;;;;;3.58;2.90;;;26.40;60.60;;;;;;4962677;28;20538;-83
2022/07/17 06:23:05;;;;;;;4.78;2.47;;;26.50;60.30;;;;;;4951777;28;20030;-83
2022/07/17 06:25:31;;;;;;;6.00;2.50;;;26.60;60.30;;;;;;4968605;28;20071;-81
2022/07/17 06:27:57;;;;;;;4.88;2.30;;;26.70;59.90;;;;;;4969102;28;20038;-82
2022/07/17 06:30:23;;;;;;;2.95;2.13;;;26.70;59.40;;;;;;4967687;28;20248;-83
2022/07/17 06:32:49;;;;;;;3.97;2.20;;;26.80;59.10;;;;;;4981756;28;20034;-83
2022/07/17 06:35:15;;;;;;;3.10;2.45;;;26.80;58.90;;;;;;4979319;28;20437;-83
2022/07/17 06:37:41;;;;;;;2.58;1.75;;;26.90;58.70;;;;;;4967533;28;20137;-84
2022/07/17 06:40:07;;;;;;;5.35;2.10;;;26.90;57.60;;;;;;4980903;28;20047;-83
2022/07/17 06:42:33;;;;;;;3.63;1.80;;;27.00;58.50;;;;;;4946515;28;20099;-81
2022/07/17 06:44:59;;;;;;;3.13;1.85;;;27.00;57.70;;;;;;4951788;28;20035;-82
2022/07/17 06:47:25;;;;;;;2.35;1.77;;;27.00;57.80;;;;;;4981654;28;20414;-85
2022/07/17 06:49:51;;;;;;;2.08;1.48;;;27.10;57.70;;;;;;4978564;28;20126;-82
2022/07/17 06:52:17;;;;;;;3.88;1.50;;;27.20;58.00;;;;;;4982127;28;20090;-82
2022/07/17 06:54:43;;;;;;;1.35;1.10;;;27.20;57.70;;;;;;4964272;28;20409;-83
2022/07/17 06:57:09;;;;;;;1.58;1.10;;;27.10;53.80;;;;;;4962582;28;20558;-83
2022/07/17 06:59:35;;;;;;;2.33;1.25;;;27.10;56.90;;;;;;4965482;28;20130;-83
2022/07/17 07:02:00;;;;;;;1.73;1.05;;;27.00;56.80;;;;;;4985712;28;20027;-83
2022/07/17 07:04:27;;;;;;;2.47;1.30;;;27.10;56.70;;;;;;4966481;28;20514;-83
2022/07/17 07:06:53;;;;;;;1.77;1.20;;;27.10;56.40;;;;;;4955411;28;20118;-82
2022/07/17 07:09:18;;;;;;;3.45;1.40;;;27.10;57.00;;;;;;4973965;28;20478;-83
2022/07/17 07:11:44;;;;;;;2.10;1.33;;;27.10;56.40;;;;;;4967631;28;20034;-84
2022/07/17 07:14:11;;;;;;;1.15;1.10;;;27.10;56.70;;;;;;4968194;28;20047;-82
2022/07/17 07:16:37;;;;;;;1.80;1.20;;;27.20;56.60;;;;;;4982144;28;20509;-82
2022/07/17 07:19:03;;;;;;;1.00;0.90;;;27.20;56.50;;;;;;4969061;28;20036;-83
2022/07/17 07:21:29;;;;;;;1.55;1.00;;;27.20;56.60;;;;;;4968298;28;20026;-83
2022/07/17 07:23:55;;;;;;;1.08;0.90;;;27.20;56.90;;;;;;4936826;28;20037;-82
2022/07/17 07:26:22;;;;;;;1.52;0.98;;;27.20;57.00;;;;;;4966776;28;20038;-83
2022/07/17 07:28:48;;;;;;;3.10;1.13;;;27.30;57.30;;;;;;4983927;28;20031;-82
2022/07/17 07:31:14;;;;;;;0.80;0.80;;;27.30;56.60;;;;;;4966534;28;20041;-83
2022/07/17 07:33:39;;;;;;;1.35;1.00;;;27.20;56.60;;;;;;4971084;28;20039;-83
2022/07/17 07:36:06;;;;;;;1.70;1.00;;;27.20;56.90;;;;;;4969821;28;20069;-83
2022/07/17 07:38:32;;;;;;;1.98;0.93;;;27.20;56.90;;;;;;4969533;28;20039;-81
2022/07/17 07:40:58;;;;;;;1.27;0.75;;;27.20;55.90;;;;;;4968979;28;20383;-84
2022/07/17 07:43:24;;;;;;;2.33;1.10;;;27.20;56.20;;;;;;4955063;28;20121;-83
2022/07/17 07:45:50;;;;;;;1.65;0.70;;;27.30;55.40;;;;;;4973120;28;20058;-84
2022/07/17 07:48:16;;;;;;;0.57;0.57;;;27.30;53.50;;;;;;4985275;28;20030;-83
2022/07/17 07:50:42;;;;;;;1.48;0.65;;;27.30;54.60;;;;;;4984071;28;20122;-83
2022/07/17 07:53:08;;;;;;;0.95;0.80;;;27.20;56.50;;;;;;4986913;28;20126;-82
2022/07/17 07:55:34;;;;;;;0.75;0.70;;;27.20;56.80;;;;;;4964872;28;20181;-83
2022/07/17 07:58:12;;;;;;;1.35;0.63;;;27.20;55.90;;;;;;4950327;28;20505;-83
2022/07/17 08:00:39;;;;;;;2.30;0.88;;;27.30;54.80;;;;;;4987554;28;20042;-84
2022/07/17 08:03:06;;;;;;;1.40;0.68;;;27.20;56.50;;;;;;4982849;28;20117;-83
2022/07/17 08:05:33;;;;;;;2.22;1.20;;;27.20;56.00;;;;;;4970327;28;20031;-82
2022/07/17 08:07:59;;;;;;;1.58;0.90;;;27.20;55.50;;;;;;4953176;28;20022;-83
2022/07/17 08:10:25;;;;;;;1.58;0.80;;;27.10;55.10;;;;;;4971744;28;20409;-84
2022/07/17 08:12:51;;;;;;;1.20;0.73;;;27.10;55.50;;;;;;4970370;28;20162;-84
2022/07/17 08:15:19;;;;;;;1.98;0.55;;;27.20;56.20;;;;;;4967357;28;20034;-83
2022/07/17 08:17:46;;;;;;;1.70;0.60;;;27.20;56.50;;;;;;4969387;28;20504;-83
2022/07/17 08:20:13;;;;;;;1.50;0.95;;;27.10;55.50;;;;;;4966473;28;20031;-83
2022/07/17 08:22:40;;;;;;;0.77;0.77;;;27.10;54.20;;;;;;4969416;28;20039;-83
2022/07/17 08:25:06;;;;;;;1.13;0.85;;;27.10;55.20;;;;;;4970788;28;20379;-84
2022/07/17 08:27:40;;;;;;;2.05;0.63;;;27.10;54.80;;;;;;4967058;28;20062;-81
2022/07/17 08:30:09;;;;;;;0.80;0.50;;;27.10;55.60;;;;;;4972112;28;20038;-82
2022/07/17 08:32:35;;;;;;;2.35;0.65;;;27.10;55.80;;;;;;4971608;28;20051;-82
2022/07/17 08:35:01;;;;;;;2.50;0.75;;;27.10;55.30;;;;;;4967056;28;20371;-82
2022/07/17 08:37:27;;;;;;;2.13;0.68;;;27.00;54.30;;;;;;4952392;28;20065;-82
2022/07/17 08:39:53;;;;;;;1.08;0.80;;;27.00;54.50;;;;;;4968087;28;20484;-82
2022/07/17 08:42:19;;;;;;;0.77;0.68;;;27.00;54.80;;;;;;4967647;28;20119;-82
2022/07/17 08:44:45;;;;;;;0.90;0.55;;;27.10;55.60;;;;;;4971689;28;20125;-82
2022/07/17 08:47:12;;;;;;;1.05;0.68;;;27.10;55.40;;;;;;4965985;28;20485;-83
2022/07/17 08:49:45;;;;;;;1.92;0.57;;;27.10;56.00;;;;;;4968204;28;20034;-82
2022/07/17 08:52:13;;;;;;;0.55;0.52;;;27.00;55.60;;;;;;4952039;28;20070;-82
2022/07/17 08:54:39;;;;;;;0.75;0.60;;;27.00;55.70;;;;;;4931416;28;20063;-82
2022/07/17 08:57:05;;;;;;;1.98;0.80;;;27.00;54.80;;;;;;4947310;28;20489;-84
2022/07/17 08:59:31;;;;;;;2.13;0.63;;;27.00;54.90;;;;;;4949194;28;20102;-83
2022/07/17 09:02:01;;;;;;;2.25;0.65;;;27.00;55.20;;;;;;4948146;28;20499;-83
2022/07/17 09:04:27;;;;;;;2.67;1.05;;;27.00;55.10;;;;;;4965270;28;20082;-84
2022/07/17 09:07:04;;;;;;;2.22;0.70;;;27.00;53.90;;;;;;4946601;28;20063;-84
2022/07/17 09:09:33;;;;;;;1.45;0.90;;;27.00;53.10;;;;;;4945052;28;20066;-84
2022/07/17 09:12:01;;;;;;;2.58;0.65;;;27.00;53.10;;;;;;4947251;28;20499;-84
2022/07/17 09:14:41;;;;;;;3.10;0.60;;;26.90;52.60;;;;;;4929761;28;20038;-84
2022/07/17 09:17:11;;;;;;;1.55;0.90;;;26.90;53.60;;;;;;4966872;28;20030;-84
2022/07/17 09:19:42;;;;;;;1.75;0.77;;;26.90;53.10;;;;;;4946890;28;20046;-83
2022/07/17 09:22:13;;;;;;;0.52;0.50;;;26.90;52.20;;;;;;4945717;28;20552;-84
2022/07/17 09:24:50;;;;;;;1.40;0.63;;;26.90;52.20;;;;;;4947736;28;20506;-84
2022/07/17 09:27:32;;;;;;;2.20;0.80;;;26.80;53.40;;;;;;4935414;28;20042;-84
2022/07/17 09:30:01;;;;;;;2.67;0.60;;;26.90;53.90;;;;;;4948494;28;20560;-83
2022/07/17 09:32:30;;;;;;;1.13;0.50;;;26.90;54.30;;;;;;4961101;28;20039;-84
2022/07/17 09:34:58;;;;;;;1.02;0.47;;;26.90;54.10;;;;;;4946083;28;20362;-83
2022/07/17 09:37:26;;;;;;;1.63;0.73;;;26.90;54.20;;;;;;4946429;28;20043;-84
2022/07/17 09:39:53;;;;;;;1.55;0.70;;;26.90;54.40;;;;;;4943097;28;20043;-83
2022/07/17 09:42:32;;;;;;;1.13;0.80;;;26.80;53.50;;;;;;4926218;29;20151;-82
2022/07/17 09:45:04;;;;;;;2.63;0.70;;;26.80;52.90;;;;;;4925115;29;20035;-83
2022/07/17 09:47:33;;;;;;;2.42;0.90;;;26.80;52.90;;;;;;4930790;28;20039;-84
2022/07/17 09:50:00;;;;;;;2.05;0.80;;;26.80;52.70;;;;;;4943277;28;20382;-84
2022/07/17 09:52:33;;;;;;;1.15;0.73;;;26.70;52.80;;;;;;4943532;29;20035;-83
2022/07/17 09:55:00;;;;;;;2.20;0.70;;;26.80;53.20;;;;;;4945773;29;20436;-84
2022/07/17 09:57:34;;;;;;;3.65;0.63;;;26.70;53.50;;;;;;4942649;28;20482;-82
2022/07/17 10:00:06;;;;;;;1.75;0.80;;;26.70;52.90;;;;;;4953572;28;20084;-83
2022/07/17 10:02:43;;;;;;;2.08;0.63;;;26.70;52.70;;;;;;4979313;28;20038;-83
2022/07/17 10:05:16;;;;;;;1.15;0.60;;;26.60;52.30;;;;;;4968618;28;20038;-82
2022/07/17 10:07:45;;;;;;;1.85;0.70;;;26.60;52.40;;;;;;4964455;28;20055;-83
2022/07/17 10:10:12;;;;;;;2.33;0.77;;;26.60;52.40;;;;;;4955201;28;20419;-82
2022/07/17 10:12:41;;;;;;;2.63;0.85;;;26.60;52.70;;;;;;4983525;28;20038;-82
2022/07/17 10:15:08;;;;;;;1.98;0.90;;;26.60;52.90;;;;;;4966096;28;20034;-82
2022/07/17 10:17:34;;;;;;;1.02;0.80;;;26.60;52.60;;;;;;4969333;28;20070;-82
2022/07/17 10:20:00;;;;;;;2.70;0.80;;;26.60;53.30;;;;;;4967961;28;20026;-82
2022/07/17 10:22:26;;;;;;;1.40;0.60;;;26.50;54.80;;;;;;4966045;28;20037;-82
2022/07/17 10:24:57;;;;;;;1.52;0.82;;;26.50;53.70;;;;;;4964215;28;20061;-81
2022/07/17 10:27:29;;;;;;;1.85;0.65;;;26.50;54.30;;;;;;4965136;28;20047;-82
2022/07/17 10:30:09;;;;;;;3.75;0.95;;;26.50;53.80;;;;;;4981348;28;20172;-82
2022/07/17 10:32:35;;;;;;;1.30;0.73;;;26.50;54.10;;;;;;4983276;28;20063;-82
2022/07/17 10:35:07;;;;;;;1.13;0.80;;;26.50;54.90;;;;;;4985184;28;20027;-82
2022/07/17 10:37:36;;;;;;;1.63;0.95;;;26.50;54.60;;;;;;4971537;28;20063;-82
2022/07/17 10:40:17;;;;;;;1.67;0.63;;;26.50;54.80;;;;;;4972481;28;20047;-81
2022/07/17 10:42:46;;;;;;;1.23;0.70;;;26.50;54.40;;;;;;4968193;28;20035;-82
2022/07/17 10:45:16;;;;;;;1.55;0.82;;;26.50;54.90;;;;;;4970841;28;20043;-82
2022/07/17 10:47:53;;;;;;;1.17;0.60;;;26.50;54.80;;;;;;4973886;28;20069;-82
2022/07/17 10:50:23;;;;;;;2.63;0.82;;;26.50;54.40;;;;;;4972229;28;20027;-81
2022/07/17 10:53:17;;;;;;;1.65;0.80;;;26.50;54.90;;;;;;4958960;28;20031;-82
2022/07/17 10:55:52;;;;;;;1.05;0.60;;;26.50;54.10;;;;;;4966106;28;20557;-82
2022/07/17 10:58:27;;;;;;;2.50;0.87;;;26.50;54.70;;;;;;4966385;28;20043;-82
2022/07/17 11:01:12;;;;;;;1.67;0.85;;;26.50;54.80;;;;;;4986706;28;20133;-82
2022/07/17 11:03:44;;;;;;;1.20;0.80;;;26.60;54.40;;;;;;4969253;28;20061;-82
2022/07/17 11:06:19;;;;;;;1.60;0.80;;;26.50;55.00;;;;;;4967282;28;20498;-82
2022/07/17 11:08:55;;;;;;;1.45;1.00;;;26.40;52.50;;;;;;4969883;28;20037;-84
2022/07/17 11:11:39;;;;;;;1.88;0.80;;;26.20;53.50;;;;;;4970867;28;20031;-82
2022/07/17 11:14:08;;;;;;;2.15;0.80;;;26.10;52.40;;;;;;4970652;28;20054;-82
2022/07/17 11:16:35;;;;;;;1.52;1.00;;;25.90;52.50;;;;;;4973402;28;20051;-82
2022/07/17 11:19:01;;;;;;;1.42;0.90;;;26.00;54.10;;;;;;4939172;28;20035;-83
2022/07/17 11:21:31;;;;;;;1.58;0.95;;;26.00;54.50;;;;;;4925713;28;20050;-83
2022/07/17 11:23:58;;;;;;;1.10;0.90;;;26.00;54.40;;;;;;4962499;28;20069;-82
2022/07/17 11:26:25;;;;;;;1.33;0.90;;;26.10;54.50;;;;;;4967442;28;20031;-83
2022/07/17 11:29:01;;;;;;;1.95;1.08;;;26.00;52.20;;;;;;4969611;28;20034;-83
2022/07/17 11:31:28;;;;;;;1.30;0.90;;;25.90;52.80;;;;;;4961590;28;20078;-84
2022/07/17 11:33:58;;;;;;;1.90;0.95;;;26.00;53.50;;;;;;4936200;28;20061;-82
2022/07/17 11:36:31;;;;;;;1.60;0.80;;;26.00;52.60;;;;;;4963001;28;20035;-84
2022/07/17 11:39:00;;;;;;;1.80;0.98;;;26.00;52.20;;;;;;4957498;28;20038;-83
2022/07/17 11:41:33;;;;;;;0.93;0.68;;;25.90;53.60;;;;;;4963078;28;20045;-84
2022/07/17 11:43:59;;;;;;;3.33;0.93;;;26.00;55.30;;;;;;4951582;28;20134;-84
2022/07/17 11:46:27;;;;;;;3.65;0.80;;;26.00;55.70;;;;;;4966670;28;20133;-84
2022/07/17 11:48:53;;;;;;;1.13;0.68;;;26.00;52.20;;;;;;4968110;28;20038;-83
2022/07/17 11:51:19;;;;;;;2.42;0.98;;;25.90;52.80;;;;;;4963933;28;20037;-84
2022/07/17 11:53:45;;;;;;;1.00;0.75;;;25.80;52.30;;;;;;4977516;28;20046;-83
2022/07/17 11:56:20;;;;;;;0.93;0.80;;;25.70;52.00;;;;;;4947021;28;20031;-84
2022/07/17 11:58:47;;;;;;;1.65;0.80;;;25.70;53.80;;;;;;4929650;28;20085;-83
2022/07/17 12:01:15;;;;;;;2.33;0.90;;;25.80;54.30;;;;;;4963631;28;20042;-83
2022/07/17 12:03:41;;;;;;;1.20;0.68;;;25.90;53.20;;;;;;4984066;28;20042;-82
2022/07/17 12:06:07;;;;;;;2.25;0.95;;;25.90;53.30;;;;;;4953676;28;20123;-82
2022/07/17 12:08:34;;;;;;;0.80;0.80;;;25.90;53.50;;;;;;4983203;28;20492;-82
2022/07/17 12:11:09;;;;;;;1.55;0.70;;;25.90;54.10;;;;;;4985992;28;20038;-83
2022/07/17 12:13:44;;;;;;;1.05;0.90;;;25.90;52.80;;;;;;4955951;28;20560;-82
2022/07/17 12:16:27;;;;;;;;;;;25.80;51.80;;;;;;4983945;28;20035;-82
2022/07/17 12:19:14;;;;;;;1.20;0.90;;;25.70;51.50;;;;;;4971657;28;19934;-85
2022/07/17 12:21:49;;;;;;;1.60;1.00;;;25.70;52.00;;;;;;4965379;28;20134;-82
2022/07/17 12:24:38;;;;;;;1.00;0.90;;;25.70;52.80;;;;;;4965750;28;20035;-82
2022/07/17 12:27:07;;;;;;;0.95;0.70;;;25.60;52.70;;;;;;4967700;28;20035;-82
2022/07/17 12:29:33;;;;;;;1.48;0.80;;;25.60;53.60;;;;;;4968274;28;20045;-81
2022/07/17 12:32:11;;;;;;;2.45;0.90;;;25.70;53.10;;;;;;4981141;28;20039;-82
2022/07/17 12:34:44;;;;;;;1.35;0.88;;;25.80;53.40;;;;;;4981912;28;20038;-82
2022/07/17 12:37:19;;;;;;;1.30;1.05;;;25.80;53.30;;;;;;4987052;28;20133;-83
2022/07/17 12:39:47;;;;;;;1.60;0.93;;;25.80;52.70;;;;;;4962670;28;20455;-82
2022/07/17 12:42:14;;;;;;;1.50;1.02;;;25.80;53.10;;;;;;4964499;28;20039;-81
2022/07/17 12:44:42;;;;;;;0.73;0.70;;;25.90;53.60;;;;;;4964435;28;20585;-82
2022/07/17 12:47:08;;;;;;;2.75;1.02;;;25.90;55.90;;;;;;4965176;28;20061;-82
2022/07/17 12:49:34;;;;;;;1.48;0.85;;;25.90;53.50;;;;;;4971662;28;20189;-80